createdAt,value
2023-01-23T05:16:34.482Z,2.60
2023-01-23T05:19:14.299Z,4.13
2023-01-23T05:21:41.230Z,4.63
2023-01-23T05:24:12.109Z,4.20
2023-01-23T05:26:40.904Z,3.05
2023-01-23T05:29:07.721Z,3.78
2023-01-23T05:31:38.314Z,3.70
2023-01-23T05:34:32.119Z,4.93
2023-01-23T05:37:01.957Z,4.20
2023-01-23T05:39:32.053Z,6.00
2023-01-23T05:42:00.014Z,4.20
2023-01-23T05:44:31.645Z,4.00
2023-01-23T05:47:10.311Z,3.65
2023-01-23T05:49:37.821Z,3.13
2023-01-23T05:52:05.515Z,4.55
2023-01-23T05:54:34.138Z,3.85
2023-01-23T05:57:00.758Z,3.10
2023-01-23T05:59:49.109Z,3.88
2023-01-23T06:02:35.206Z,4.70
2023-01-23T06:05:29.864Z,3.13
2023-01-23T06:08:08.655Z,3.38
2023-01-23T06:10:38.388Z,4.20
2023-01-23T06:13:05.369Z,3.88
2023-01-23T06:15:32.158Z,5.20
2023-01-23T06:18:03.949Z,3.70
2023-01-23T06:20:30.474Z,3.10
2023-01-23T06:22:57.206Z,3.25
2023-01-23T06:25:23.798Z,4.57
2023-01-23T06:27:54.874Z,4.60
2023-01-23T06:30:23.024Z,2.33
2023-01-23T06:32:50.186Z,2.95
2023-01-23T06:35:21.461Z,3.15
2023-01-23T06:37:50.884Z,4.65
2023-01-23T06:40:19.889Z,4.03
2023-01-23T06:42:57.425Z,3.30
2023-01-23T06:45:24.087Z,4.30
2023-01-23T06:47:52.612Z,9.18
2023-01-23T06:50:19.522Z,3.30
2023-01-23T06:52:46.365Z,3.28
2023-01-23T06:55:14.578Z,3.92
2023-01-23T06:57:41.291Z,5.97
2023-01-23T07:00:13.116Z,4.57
2023-01-23T07:02:40.056Z,3.55
2023-01-23T07:05:07.067Z,3.88
2023-01-23T07:07:33.694Z,4.70
2023-01-23T07:10:00.322Z,3.72
2023-01-23T07:12:26.822Z,2.42
2023-01-23T07:14:53.374Z,4.75
2023-01-23T07:17:28.712Z,3.38
2023-01-23T07:19:55.210Z,4.25
2023-01-23T07:22:22.861Z,4.03
2023-01-23T07:24:49.388Z,2.85
2023-01-23T07:27:15.998Z,4.75
2023-01-23T07:29:43.168Z,2.88
2023-01-23T07:32:11.192Z,3.80
2023-01-23T07:34:38.021Z,4.30
2023-01-23T07:37:04.600Z,3.15
2023-01-23T07:39:31.185Z,3.53
2023-01-23T07:41:58.703Z,3.88
2023-01-23T07:44:28.063Z,4.18
2023-01-23T07:46:54.607Z,6.13
2023-01-23T07:49:21.151Z,4.75
2023-01-23T07:51:47.720Z,4.40
2023-01-23T07:54:14.310Z,4.28
2023-01-23T07:56:54.893Z,4.82
2023-01-23T07:59:28.790Z,6.20
2023-01-23T08:01:55.419Z,4.55
2023-01-23T08:04:21.978Z,4.13
2023-01-23T08:06:48.497Z,4.13
2023-01-23T08:09:15.024Z,3.90
2023-01-23T08:11:41.648Z,4.43
2023-01-23T08:14:08.116Z,3.55
2023-01-23T08:16:34.703Z,3.67
2023-01-23T08:19:01.182Z,3.80
2023-01-23T08:21:27.757Z,4.80
2023-01-23T08:23:55.369Z,4.60
2023-01-23T08:26:21.822Z,3.72
2023-01-23T08:28:48.343Z,6.95
2023-01-23T08:31:15.056Z,3.55
2023-01-23T08:33:41.638Z,4.28
2023-01-23T08:36:11.269Z,4.47
2023-01-23T08:38:38.262Z,5.18
2023-01-23T08:41:05.716Z,3.83
2023-01-23T08:43:32.915Z,6.95
2023-01-23T08:45:59.887Z,3.85
2023-01-23T08:48:27.660Z,4.18
2023-01-23T08:51:03.323Z,5.18
2023-01-23T08:53:30.962Z,5.15
2023-01-23T08:56:01.353Z,4.97
2023-01-23T08:58:28.174Z,4.57
2023-01-23T09:00:55.002Z,4.53
2023-01-23T09:03:21.988Z,7.47
2023-01-23T09:05:48.793Z,5.38
2023-01-23T09:08:15.626Z,8.40
2023-01-23T09:10:42.205Z,5.63
2023-01-23T09:13:08.735Z,6.05
2023-01-23T09:15:38.166Z,4.80
2023-01-23T09:18:05.122Z,7.70
2023-01-23T09:20:31.679Z,5.05
2023-01-23T09:22:58.252Z,6.00
2023-01-23T09:25:24.847Z,4.85
2023-01-23T09:27:51.309Z,7.13
2023-01-23T09:30:18.238Z,5.97
2023-01-23T09:32:45.013Z,6.55
2023-01-23T09:35:11.869Z,4.90
2023-01-23T09:38:00.000Z,6.78
2023-01-23T09:40:44.985Z,3.30
2023-01-23T09:43:33.324Z,4.05
2023-01-23T09:46:19.025Z,5.97
2023-01-23T09:49:23.978Z,6.55
2023-01-23T09:52:03.188Z,6.22
2023-01-23T09:54:44.461Z,7.50
2023-01-23T09:57:29.736Z,4.97
2023-01-23T10:00:06.590Z,6.13
2023-01-23T10:02:34.171Z,5.10
2023-01-23T10:05:02.909Z,5.45
2023-01-23T10:07:52.544Z,5.13
2023-01-23T10:10:47.391Z,6.57
2023-01-23T10:13:27.025Z,5.55
2023-01-23T10:16:10.902Z,5.40
2023-01-23T10:18:47.131Z,6.50
2023-01-23T10:21:38.816Z,6.40
2023-01-23T10:24:40.053Z,5.22
2023-01-23T10:27:33.960Z,4.47
2023-01-23T10:30:20.901Z,4.35
2023-01-23T10:33:13.530Z,6.65
2023-01-23T10:35:50.947Z,4.25
2023-01-23T10:38:26.807Z,4.93
2023-01-23T10:41:12.590Z,4.72
2023-01-23T10:43:40.650Z,4.05
2023-01-23T10:46:16.191Z,3.40
2023-01-23T10:48:49.895Z,3.13
2023-01-23T10:51:33.749Z,3.38
2023-01-23T10:54:31.788Z,4.07
2023-01-23T10:57:02.168Z,3.88
2023-01-23T11:00:08.397Z,3.50
2023-01-23T11:02:37.402Z,3.95
2023-01-23T11:05:46.567Z,4.60
2023-01-23T11:09:10.270Z,4.70
2023-01-23T11:11:40.802Z,3.92
2023-01-23T11:14:16.919Z,4.68
2023-01-23T11:16:44.010Z,4.05
2023-01-23T11:19:12.688Z,6.07
2023-01-23T11:21:53.584Z,3.72
2023-01-23T11:24:39.266Z,4.30
2023-01-23T11:27:28.133Z,3.22
2023-01-23T11:30:16.855Z,4.45
2023-01-23T11:32:58.779Z,3.78
2023-01-23T11:35:50.966Z,3.20
2023-01-23T11:38:30.449Z,5.22
2023-01-23T11:40:59.953Z,5.30
2023-01-23T11:43:26.538Z,4.72
2023-01-23T11:46:06.812Z,4.90
2023-01-23T11:49:00.786Z,5.55
2023-01-23T11:51:41.998Z,5.32
2023-01-23T11:54:35.112Z,5.03
2023-01-23T11:57:33.985Z,4.28
2023-01-23T12:00:32.873Z,5.93
2023-01-23T12:03:27.014Z,4.85
2023-01-23T12:06:36.363Z,6.60
2023-01-23T12:09:11.013Z,4.72
2023-01-23T12:12:20.142Z,5.82
2023-01-23T12:14:57.055Z,2.42
2023-01-23T12:17:41.735Z,3.05
2023-01-23T12:20:38.961Z,4.13
2023-01-23T12:23:45.264Z,2.80
2023-01-23T12:26:22.523Z,4.85
2023-01-23T12:29:06.797Z,3.42
2023-01-23T12:32:24.748Z,3.63
2023-01-23T12:35:00.636Z,3.83
2023-01-23T12:37:49.816Z,4.40
2023-01-23T12:40:38.728Z,4.07
2023-01-23T12:43:44.156Z,4.13
2023-01-23T12:46:18.395Z,3.85
2023-01-23T12:49:18.908Z,4.10
2023-01-23T12:51:50.116Z,4.93
2023-01-23T12:54:27.864Z,6.20
2023-01-23T12:56:55.031Z,3.25
2023-01-23T12:59:55.789Z,3.50
2023-01-23T13:02:45.295Z,3.58
2023-01-23T13:05:31.018Z,3.53
2023-01-23T13:08:22.471Z,3.63
2023-01-23T13:11:19.012Z,3.38
2023-01-23T13:13:47.065Z,3.25
2023-01-23T13:16:19.689Z,3.83
2023-01-23T13:19:52.131Z,4.35
2023-01-23T13:22:42.638Z,3.65
2023-01-23T13:25:41.368Z,4.47
2023-01-23T13:28:58.247Z,5.35
2023-01-23T13:32:02.462Z,4.60
2023-01-23T13:37:27.391Z,3.80
2023-01-23T13:40:18.693Z,3.60
2023-01-23T13:42:45.202Z,3.50
2023-01-23T13:45:27.382Z,4.43
2023-01-23T14:22:19.844Z,2.90
2023-01-23T14:24:48.916Z,2.75
2023-01-23T14:27:53.225Z,3.78
2023-01-23T14:30:26.299Z,5.00
2023-01-23T14:32:53.024Z,3.03
2023-01-23T14:35:24.371Z,3.53
2023-01-23T14:37:53.648Z,5.68
2023-01-23T14:40:27.687Z,5.30
2023-01-23T14:43:01.238Z,7.88
2023-01-23T14:45:33.520Z,4.28
2023-01-23T14:48:06.906Z,5.15
2023-01-23T14:50:34.121Z,4.63
2023-01-23T14:53:05.989Z,5.05
2023-01-23T14:55:37.791Z,4.60
2023-01-23T14:58:04.851Z,4.50
2023-01-23T15:00:32.408Z,4.20
2023-01-23T15:02:59.028Z,4.35
2023-01-23T15:05:27.564Z,6.20
2023-01-23T15:07:56.649Z,6.53
2023-01-23T15:10:29.340Z,7.85
2023-01-23T15:13:01.997Z,5.32
2023-01-23T15:15:30.211Z,5.97
2023-01-23T15:18:00.533Z,5.00
2023-01-23T15:20:41.118Z,9.60
2023-01-23T15:23:38.363Z,5.38
2023-01-23T15:26:14.031Z,6.68
2023-01-23T15:28:51.165Z,5.35
2023-01-23T15:31:34.485Z,12.98
2023-01-23T15:34:16.605Z,7.68
2023-01-23T15:37:00.344Z,5.90
2023-01-23T15:39:40.639Z,4.97
2023-01-23T15:42:13.283Z,6.60
2023-01-23T15:44:41.143Z,5.43
2023-01-23T15:47:07.681Z,6.07
2023-01-23T15:49:38.939Z,7.25
2023-01-23T15:52:22.857Z,6.75
2023-01-23T15:54:52.836Z,6.45
2023-01-23T15:57:19.821Z,6.07
2023-01-23T15:59:46.515Z,6.13
2023-01-23T16:02:30.626Z,5.72
2023-01-23T16:04:58.177Z,4.00
2023-01-23T16:07:34.089Z,5.85
2023-01-23T16:10:02.464Z,5.18
2023-01-23T16:12:30.066Z,6.85
2023-01-23T16:14:57.416Z,6.68
2023-01-23T16:17:24.018Z,7.72
2023-01-23T16:19:50.748Z,6.32
2023-01-23T16:22:29.408Z,6.75
2023-01-23T16:24:58.256Z,6.25
2023-01-23T16:27:27.935Z,7.47
2023-01-23T16:29:56.932Z,6.82
2023-01-23T16:32:24.093Z,7.43
2023-01-23T16:34:50.920Z,4.78
2023-01-23T16:37:18.860Z,8.00
2023-01-23T16:39:46.743Z,5.30
2023-01-23T16:42:22.186Z,6.15
2023-01-23T16:44:51.843Z,7.22
2023-01-23T16:47:21.677Z,4.50
2023-01-23T16:49:53.597Z,7.78
2023-01-23T16:52:24.988Z,5.65
2023-01-23T16:54:53.258Z,8.18
2023-01-23T16:57:21.254Z,5.22
2023-01-23T16:59:49.995Z,6.78
2023-01-23T17:02:26.455Z,4.30
2023-01-23T17:04:54.700Z,6.47
2023-01-23T17:07:21.301Z,6.30
2023-01-23T17:09:49.309Z,5.60
2023-01-23T17:12:24.122Z,7.95
2023-01-23T17:14:52.600Z,5.72
2023-01-23T17:17:28.622Z,6.30
2023-01-23T17:19:55.585Z,6.50
2023-01-23T17:22:28.030Z,5.88
2023-01-23T17:24:54.611Z,7.03
2023-01-23T17:27:21.067Z,5.88
2023-01-23T17:29:48.336Z,5.20
2023-01-23T17:32:35.702Z,7.13
2023-01-23T17:35:06.658Z,8.05
2023-01-23T17:37:36.446Z,7.93
2023-01-23T17:40:03.690Z,5.47
2023-01-23T17:42:30.158Z,6.40
2023-01-23T17:45:05.726Z,6.70
2023-01-23T17:47:34.825Z,5.05
2023-01-23T17:50:03.789Z,9.50
2023-01-23T17:55:51.702Z,6.90
2023-01-23T17:58:20.183Z,10.20
2023-01-23T18:00:52.516Z,6.78
2023-01-23T18:03:22.682Z,9.15
2023-01-23T18:05:50.369Z,6.32
2023-01-23T18:08:18.811Z,7.13
2023-01-23T18:10:47.256Z,9.95
2023-01-23T18:13:22.169Z,7.07
2023-01-23T18:16:05.232Z,7.78
2023-01-23T18:18:37.396Z,8.55
2023-01-23T18:21:06.010Z,7.57
2023-01-23T18:23:37.056Z,7.43
2023-01-23T18:26:10.383Z,6.35
2023-01-23T18:29:02.151Z,7.28
2023-01-23T18:31:46.328Z,7.18
2023-01-23T18:34:18.820Z,6.40
2023-01-23T18:36:55.389Z,9.73
2023-01-23T18:39:54.945Z,9.52
2023-01-23T18:42:33.747Z,8.75
2023-01-23T18:45:04.708Z,8.48
2023-01-23T18:47:31.455Z,6.55
2023-01-23T18:50:00.359Z,11.70
2023-01-23T18:52:52.692Z,10.95
2023-01-23T18:55:41.306Z,9.73
2023-01-23T18:58:24.296Z,8.10
2023-01-23T19:01:03.474Z,7.47
2023-01-23T19:03:44.842Z,7.93
2023-01-23T19:06:19.435Z,7.07
2023-01-23T19:08:48.030Z,9.38
2023-01-23T19:11:30.732Z,12.30
2023-01-23T19:14:06.069Z,9.63
2023-01-23T19:16:36.950Z,8.80
2023-01-23T19:19:15.835Z,10.18
2023-01-23T19:21:45.826Z,9.85
2023-01-23T19:24:13.562Z,10.20
2023-01-23T19:26:41.830Z,9.73
2023-01-23T19:29:26.085Z,8.80
2023-01-23T19:32:04.716Z,11.38
2023-01-23T19:34:32.947Z,8.18
2023-01-23T19:36:59.897Z,14.10
2023-01-23T19:39:26.456Z,10.45
2023-01-23T19:41:53.392Z,14.48
2023-01-23T19:44:23.975Z,10.05
2023-01-23T19:46:51.986Z,10.57
2023-01-23T19:49:18.863Z,10.13
2023-01-23T19:51:47.046Z,9.60
2023-01-23T19:54:14.985Z,9.95
2023-01-23T19:56:47.748Z,8.55
2023-01-23T19:59:17.845Z,9.77
2023-01-23T20:01:48.245Z,7.38
2023-01-23T20:04:18.077Z,9.13
2023-01-23T20:06:52.423Z,14.02
2023-01-23T20:09:22.851Z,12.13
2023-01-23T20:11:49.924Z,9.77
2023-01-23T20:14:16.652Z,9.30
2023-01-23T20:16:43.686Z,8.57
2023-01-23T20:19:15.350Z,10.48
2023-01-23T20:21:43.523Z,9.20
2023-01-23T20:24:10.472Z,8.45
2023-01-23T20:26:37.873Z,10.18
2023-01-23T20:29:05.257Z,10.15
2023-01-23T20:31:32.492Z,10.15
2023-01-23T20:33:59.900Z,10.60
2023-01-23T20:36:26.501Z,10.13
2023-01-23T20:38:52.987Z,9.50
2023-01-23T20:41:20.438Z,7.95
2023-01-23T20:43:47.588Z,8.38
2023-01-23T20:46:15.580Z,10.25
2023-01-23T20:48:44.341Z,9.77
2023-01-23T20:51:15.610Z,10.25
2023-01-23T20:53:42.738Z,7.30
2023-01-23T20:56:19.180Z,11.73
2023-01-23T20:59:07.349Z,8.55
2023-01-23T21:01:55.488Z,9.70
2023-01-23T21:04:24.376Z,9.82
2023-01-23T21:06:51.112Z,11.40
2023-01-23T21:09:17.798Z,10.13
2023-01-23T21:11:44.829Z,9.20
2023-01-23T21:14:12.861Z,6.82
2023-01-23T21:16:39.521Z,10.05
2023-01-23T21:19:06.174Z,9.20
2023-01-23T21:21:33.047Z,8.63
2023-01-23T21:23:59.786Z,9.43
2023-01-23T21:26:27.883Z,10.65
2023-01-23T21:28:56.787Z,10.15
2023-01-23T21:31:26.629Z,9.27
2023-01-23T21:33:54.355Z,10.63
2023-01-23T21:36:23.347Z,8.70
2023-01-23T21:38:51.428Z,8.95
2023-01-23T21:41:18.632Z,10.30
2023-01-23T21:43:45.249Z,9.98
2023-01-23T21:46:12.025Z,8.43
2023-01-23T21:48:38.803Z,9.13
2023-01-23T21:51:19.973Z,10.13
2023-01-23T21:53:47.795Z,10.32
2023-01-23T21:56:17.419Z,8.48
2023-01-23T21:58:44.527Z,8.93
2023-01-23T22:01:33.248Z,12.05
2023-01-23T22:04:07.559Z,10.35
2023-01-23T22:06:35.080Z,10.80
2023-01-23T22:09:02.097Z,10.20
2023-01-23T22:11:29.152Z,9.75
2023-01-23T22:13:55.744Z,10.30
2023-01-23T22:16:31.958Z,10.50
2023-01-23T22:19:07.214Z,9.13
2023-01-23T22:21:34.201Z,9.32
2023-01-23T22:24:01.399Z,9.57
2023-01-23T22:26:28.062Z,11.10
2023-01-23T22:28:54.621Z,11.18
2023-01-23T22:31:21.251Z,11.43
2023-01-23T22:33:48.186Z,11.95
2023-01-23T22:36:17.984Z,10.57
2023-01-23T22:38:49.768Z,10.57
2023-01-23T22:41:16.300Z,12.60
2023-01-23T22:43:42.810Z,9.38
2023-01-23T22:46:15.363Z,7.82
2023-01-23T22:48:42.369Z,9.43
2023-01-23T22:51:18.157Z,12.65
2023-01-23T22:53:44.605Z,11.02
2023-01-23T22:56:11.652Z,9.05
2023-01-23T22:58:38.423Z,9.13
